createdAt,value
2018-03-25T00:01:19.708Z,23.85
2018-03-25T00:03:48.005Z,21.90
2018-03-25T00:06:15.542Z,24.27
2018-03-25T00:08:43.091Z,22.90
2018-03-25T00:11:10.569Z,24.52
2018-03-25T00:13:38.824Z,24.80
2018-03-25T00:16:07.816Z,23.50
2018-03-25T00:18:35.380Z,22.65
2018-03-25T00:21:03.043Z,24.45
2018-03-25T00:23:30.585Z,22.67
2018-03-25T00:25:58.071Z,24.37
2018-03-25T00:28:26.327Z,24.00
2018-03-25T00:30:53.804Z,22.23
2018-03-25T00:33:21.268Z,23.33
2018-03-25T00:35:49.518Z,24.67
2018-03-25T00:38:16.986Z,23.65
2018-03-25T00:40:45.216Z,24.45
2018-03-25T00:43:12.763Z,23.80
2018-03-25T00:45:40.233Z,25.02
2018-03-25T00:48:07.713Z,24.08
2018-03-25T00:50:35.180Z,24.95
2018-03-25T00:53:02.670Z,24.30
2018-03-25T00:55:30.188Z,25.80
2018-03-25T00:57:57.730Z,22.42
2018-03-25T01:00:25.210Z,25.23
2018-03-25T01:02:52.684Z,24.85
2018-03-25T01:05:20.932Z,25.88
2018-03-25T01:07:48.420Z,23.55
2018-03-25T01:10:15.878Z,25.05
2018-03-25T01:12:44.115Z,26.58
2018-03-25T01:15:11.580Z,26.25
2018-03-25T01:17:39.183Z,26.25
2018-03-25T01:20:06.649Z,24.77
2018-03-25T01:22:34.160Z,26.33
2018-03-25T01:25:01.616Z,24.92
2018-03-25T01:27:29.072Z,28.20
2018-03-25T01:29:56.550Z,28.42
2018-03-25T01:32:25.750Z,26.50
2018-03-25T01:34:53.976Z,25.80
2018-03-25T01:37:21.759Z,26.60
2018-03-25T01:39:49.285Z,26.60
2018-03-25T01:42:16.749Z,27.67
2018-03-25T01:44:44.223Z,27.83
2018-03-25T01:47:11.747Z,26.30
2018-03-25T01:49:39.244Z,26.45
2018-03-25T01:52:06.700Z,28.33
2018-03-25T01:54:34.202Z,26.20
2018-03-25T01:57:01.720Z,29.67
2018-03-25T01:59:29.186Z,25.10
2018-03-25T02:01:56.769Z,27.83
2018-03-25T02:04:24.999Z,26.92
2018-03-25T02:06:53.590Z,28.48
2018-03-25T02:09:21.051Z,26.65
2018-03-25T02:11:48.607Z,27.75
2018-03-25T02:14:16.070Z,25.25
2018-03-25T02:16:43.620Z,25.55
2018-03-25T02:19:11.072Z,27.25
2018-03-25T02:21:38.546Z,29.12
2018-03-25T02:24:06.004Z,28.42
2018-03-25T02:26:33.561Z,28.42
2018-03-25T02:29:01.108Z,25.45
2018-03-25T02:31:28.565Z,27.55
2018-03-25T02:33:56.031Z,27.20
2018-03-25T02:36:23.509Z,28.35
2018-03-25T02:38:51.748Z,26.83
2018-03-25T02:41:19.224Z,28.87
2018-03-25T02:43:46.728Z,28.30
2018-03-25T02:46:14.229Z,26.95
2018-03-25T02:48:41.716Z,26.02
2018-03-25T02:51:09.240Z,24.42
2018-03-25T02:53:36.705Z,27.87
2018-03-25T02:56:04.176Z,29.65
2018-03-25T02:58:32.424Z,28.73
2018-03-25T03:00:59.980Z,26.25
2018-03-25T03:03:27.581Z,28.65
2018-03-25T03:05:55.816Z,27.15
2018-03-25T03:08:23.282Z,28.50
2018-03-25T03:10:50.905Z,28.95
2018-03-25T03:13:18.388Z,25.90
2018-03-25T03:15:45.984Z,26.87
2018-03-25T03:18:14.216Z,28.80
2018-03-25T03:20:41.744Z,26.58
2018-03-25T03:23:09.212Z,24.92
2018-03-25T03:25:36.677Z,27.00
2018-03-25T03:28:04.153Z,25.60
2018-03-25T03:30:31.655Z,26.83
2018-03-25T03:32:59.873Z,28.27
2018-03-25T03:35:27.330Z,27.00
2018-03-25T03:37:55.792Z,25.67
2018-03-25T03:40:23.256Z,27.52
2018-03-25T03:42:50.752Z,27.45
2018-03-25T03:45:18.989Z,25.30
2018-03-25T03:47:46.534Z,25.70
2018-03-25T03:50:14.022Z,27.60
2018-03-25T03:52:41.496Z,26.73
2018-03-25T03:55:08.951Z,26.42
2018-03-25T03:57:36.463Z,27.25
2018-03-25T04:00:03.966Z,26.70
2018-03-25T04:02:32.195Z,27.05
2018-03-25T04:04:59.714Z,26.85
2018-03-25T04:07:27.949Z,27.25
2018-03-25T04:09:55.433Z,25.88
2018-03-25T04:12:22.898Z,27.00
2018-03-25T04:14:50.518Z,25.08
2018-03-25T04:17:17.976Z,25.65
2018-03-25T04:19:45.463Z,27.40
2018-03-25T04:22:13.028Z,27.27
2018-03-25T04:24:40.516Z,25.60
2018-03-25T04:27:08.036Z,27.20
2018-03-25T04:29:35.592Z,25.40
2018-03-25T04:32:03.061Z,25.98
2018-03-25T04:34:30.602Z,25.27
2018-03-25T04:36:58.074Z,26.62
2018-03-25T04:39:25.540Z,27.67
2018-03-25T04:41:53.905Z,24.63
2018-03-25T04:44:21.362Z,27.48
2018-03-25T04:46:48.977Z,25.35
2018-03-25T04:49:16.426Z,24.58
2018-03-25T04:51:43.905Z,28.38
2018-03-25T04:54:11.380Z,25.17
2018-03-25T04:56:38.840Z,25.67
2018-03-25T04:59:06.410Z,26.42
2018-03-25T05:01:33.897Z,26.20
2018-03-25T05:04:01.516Z,26.23
2018-03-25T05:06:28.993Z,27.25
2018-03-25T05:08:56.469Z,26.30
2018-03-25T05:11:24.049Z,27.75
2018-03-25T05:13:51.540Z,25.20
2018-03-25T05:16:19.000Z,28.90
2018-03-25T05:18:46.560Z,27.08
2018-03-25T05:21:14.026Z,25.60
2018-03-25T05:23:41.503Z,26.60
2018-03-25T05:26:09.741Z,28.15
2018-03-25T05:28:37.205Z,28.20
2018-03-25T05:31:04.664Z,26.52
2018-03-25T05:33:32.236Z,26.05
2018-03-25T05:35:59.787Z,24.98
2018-03-25T05:38:27.348Z,27.62
2018-03-25T05:40:54.842Z,25.40
2018-03-25T05:43:22.310Z,27.30
2018-03-25T05:45:49.818Z,27.23
2018-03-25T05:48:17.321Z,26.12
2018-03-25T05:50:44.789Z,26.80
2018-03-25T05:53:12.278Z,28.25
2018-03-25T05:55:39.747Z,25.85
2018-03-25T05:58:07.206Z,27.35
2018-03-25T06:00:34.770Z,26.12
2018-03-25T06:03:02.235Z,25.45
2018-03-25T06:05:30.494Z,26.85
2018-03-25T06:07:58.055Z,26.10
2018-03-25T06:10:25.547Z,25.60
2018-03-25T06:12:53.009Z,26.80
2018-03-25T06:15:20.486Z,25.77
2018-03-25T06:17:47.955Z,24.45
2018-03-25T06:20:15.452Z,24.27
2018-03-25T06:22:43.766Z,25.90
2018-03-25T06:25:11.244Z,26.65
2018-03-25T06:27:38.717Z,23.62
2018-03-25T06:30:06.197Z,24.75
2018-03-25T06:32:33.686Z,22.85
2018-03-25T06:35:01.223Z,24.75
2018-03-25T06:37:29.460Z,24.02
2018-03-25T06:39:56.917Z,23.10
2018-03-25T06:42:24.510Z,24.20
2018-03-25T06:44:52.764Z,25.08
2018-03-25T06:47:20.350Z,23.87
2018-03-25T06:49:48.588Z,24.77
2018-03-25T06:52:16.125Z,25.33
2018-03-25T06:54:43.616Z,23.55
2018-03-25T06:57:11.197Z,23.15
2018-03-25T06:59:39.509Z,24.37
2018-03-25T07:02:06.980Z,24.30
2018-03-25T07:04:34.462Z,24.02
2018-03-25T07:07:03.442Z,23.83
2018-03-25T07:09:30.908Z,24.52
2018-03-25T07:11:58.377Z,22.90
2018-03-25T07:14:25.957Z,24.20
2018-03-25T07:16:53.417Z,22.60
2018-03-25T07:19:21.764Z,23.67
2018-03-25T07:21:49.225Z,22.77
2018-03-25T07:24:16.686Z,22.80
2018-03-25T07:26:44.177Z,24.10
2018-03-25T07:29:11.649Z,21.90
2018-03-25T07:31:39.153Z,23.00
2018-03-25T07:34:06.726Z,22.25
2018-03-25T07:36:34.960Z,22.15
2018-03-25T07:39:02.440Z,22.90
2018-03-25T07:41:29.914Z,23.02
2018-03-25T07:43:58.157Z,22.73
2018-03-25T07:46:25.684Z,22.95
2018-03-25T07:48:53.188Z,23.00
2018-03-25T07:51:20.678Z,22.40
2018-03-25T07:53:48.921Z,25.45
2018-03-25T07:56:16.472Z,24.27
2018-03-25T07:58:43.937Z,23.83
2018-03-25T08:01:12.182Z,23.05
2018-03-25T08:03:39.661Z,22.80
2018-03-25T08:06:07.125Z,22.10
2018-03-25T08:08:34.596Z,23.52
2018-03-25T08:11:02.846Z,23.23
2018-03-25T08:13:30.318Z,23.38
2018-03-25T08:15:57.775Z,23.98
2018-03-25T08:18:25.246Z,23.90
2018-03-25T08:20:53.494Z,21.67
2018-03-25T08:23:20.957Z,23.80
2018-03-25T08:25:48.422Z,24.63
2018-03-25T08:28:15.912Z,22.60
2018-03-25T08:30:43.449Z,26.02
2018-03-25T08:33:11.718Z,23.92
2018-03-25T08:35:39.980Z,23.52
2018-03-25T08:38:07.518Z,21.80
2018-03-25T08:40:34.988Z,21.90
2018-03-25T08:43:02.557Z,22.52
2018-03-25T08:45:31.552Z,22.90
2018-03-25T08:47:59.115Z,22.90
2018-03-25T08:50:26.601Z,21.50
2018-03-25T08:52:54.178Z,22.50
2018-03-25T08:55:21.735Z,22.02
2018-03-25T08:57:49.262Z,22.98
2018-03-25T09:00:17.512Z,23.08
2018-03-25T09:02:45.049Z,22.55
2018-03-25T09:05:12.585Z,23.83
2018-03-25T09:07:40.104Z,23.73
2018-03-25T09:10:08.360Z,23.90
2018-03-25T09:12:35.837Z,23.25
2018-03-25T09:15:04.765Z,24.30
2018-03-25T09:17:32.245Z,24.83
2018-03-25T09:19:59.721Z,25.35
2018-03-25T09:22:27.223Z,25.75
2018-03-25T09:24:54.689Z,26.70
2018-03-25T09:27:22.192Z,25.67
2018-03-25T09:29:50.452Z,24.70
2018-03-25T09:32:17.925Z,24.03
2018-03-25T09:34:45.384Z,25.03
2018-03-25T09:37:12.919Z,24.33
2018-03-25T09:39:41.113Z,24.00
2018-03-25T09:42:09.389Z,24.33
2018-03-25T09:44:36.953Z,25.20
2018-03-25T09:47:04.569Z,26.20
2018-03-25T09:49:32.069Z,25.03
2018-03-25T09:51:59.556Z,24.73
2018-03-25T09:54:27.799Z,25.43
2018-03-25T09:56:55.424Z,24.77
2018-03-25T09:59:22.894Z,25.67
2018-03-25T10:01:53.204Z,24.20
2018-03-25T10:04:20.704Z,23.83
2018-03-25T10:06:48.176Z,25.07
2018-03-25T10:09:16.422Z,26.10
2018-03-25T10:11:43.896Z,25.70
2018-03-25T10:14:11.475Z,24.73
2018-03-25T10:16:39.729Z,25.20
2018-03-25T10:19:07.287Z,26.97
2018-03-25T10:21:34.794Z,23.50
2018-03-25T10:24:02.271Z,25.83
2018-03-25T10:26:29.772Z,23.80
2018-03-25T10:28:58.016Z,24.10
2018-03-25T10:31:25.521Z,25.40
2018-03-25T10:33:53.818Z,25.10
2018-03-25T10:36:21.332Z,26.23
2018-03-25T10:38:48.857Z,25.30
2018-03-25T10:41:16.338Z,23.87
2018-03-25T10:43:43.848Z,25.73
2018-03-25T10:46:11.318Z,24.40
2018-03-25T10:48:38.812Z,25.80
2018-03-25T10:51:06.285Z,26.07
2018-03-25T10:53:34.543Z,25.07
2018-03-25T10:56:02.835Z,27.90
2018-03-25T10:58:31.101Z,26.60
2018-03-25T11:00:58.757Z,27.70
2018-03-25T11:03:26.228Z,25.13
2018-03-25T11:05:56.171Z,26.13
2018-03-25T11:08:23.634Z,26.23
2018-03-25T11:10:51.113Z,25.60
2018-03-25T11:13:18.595Z,28.20
2018-03-25T11:15:46.064Z,26.20
2018-03-25T11:18:14.320Z,27.67
2018-03-25T11:20:41.790Z,27.50
2018-03-25T11:23:09.257Z,26.37
2018-03-25T11:25:37.572Z,28.03
2018-03-25T11:28:05.077Z,27.40
2018-03-25T11:30:32.585Z,27.87
2018-03-25T11:33:00.075Z,25.53
2018-03-25T11:35:27.550Z,26.50
2018-03-25T11:37:55.797Z,28.00
2018-03-25T11:40:23.277Z,27.90
2018-03-25T11:42:50.770Z,28.43
2018-03-25T11:45:18.295Z,26.57
2018-03-25T11:47:45.768Z,28.77
2018-03-25T11:50:13.993Z,29.90
2018-03-25T11:52:41.474Z,28.37
2018-03-25T11:55:08.932Z,28.00
2018-03-25T11:57:36.500Z,28.43
2018-03-25T12:00:03.988Z,28.10
2018-03-25T12:02:31.513Z,29.83
2018-03-25T12:04:58.984Z,29.50
2018-03-25T12:07:26.453Z,27.90
2018-03-25T12:09:53.986Z,29.13
2018-03-25T12:12:23.718Z,28.83
2018-03-25T12:14:51.980Z,29.57
2018-03-25T12:17:20.232Z,26.30
2018-03-25T12:19:47.758Z,29.33
2018-03-25T12:22:15.226Z,29.30
2018-03-25T12:24:42.813Z,28.10
2018-03-25T12:27:10.391Z,29.70
2018-03-25T12:29:37.863Z,30.07
2018-03-25T12:32:06.102Z,29.60
2018-03-25T12:34:33.677Z,28.57
2018-03-25T12:37:01.949Z,30.77
2018-03-25T12:39:31.055Z,27.13
2018-03-25T12:41:58.525Z,27.00
2018-03-25T12:44:26.764Z,27.93
2018-03-25T12:46:54.228Z,27.73
2018-03-25T12:49:21.694Z,25.33
2018-03-25T12:51:49.948Z,26.53
2018-03-25T12:54:17.440Z,28.87
2018-03-25T12:56:45.676Z,27.80
2018-03-25T12:59:13.154Z,28.50
2018-03-25T13:01:40.709Z,26.70
2018-03-25T13:04:08.178Z,26.47
2018-03-25T13:06:36.420Z,25.40
2018-03-25T13:09:03.922Z,28.37
2018-03-25T13:11:32.281Z,24.27
2018-03-25T13:14:00.567Z,28.90
2018-03-25T13:16:28.830Z,26.53
2018-03-25T13:18:56.303Z,27.33
2018-03-25T13:21:24.575Z,26.80
2018-03-25T13:23:52.816Z,27.13
2018-03-25T13:26:20.298Z,25.90
2018-03-25T13:28:47.810Z,25.00
2018-03-25T13:31:15.279Z,24.60
2018-03-25T13:33:42.751Z,25.83
2018-03-25T13:36:10.332Z,25.83
2018-03-25T13:38:38.587Z,25.37
2018-03-25T13:41:06.265Z,27.00
2018-03-25T13:43:33.775Z,24.97
2018-03-25T13:46:01.240Z,25.87
2018-03-25T13:48:28.797Z,25.90
2018-03-25T13:50:56.262Z,25.83
2018-03-25T13:53:23.737Z,26.37
2018-03-25T13:55:51.226Z,25.97
2018-03-25T13:58:19.478Z,27.50
2018-03-25T14:00:48.454Z,26.87
2018-03-25T14:03:15.924Z,26.70
2018-03-25T14:05:43.392Z,26.00
2018-03-25T14:08:10.940Z,25.50
2018-03-25T14:10:38.433Z,26.70
2018-03-25T14:13:06.661Z,25.93
2018-03-25T14:15:34.208Z,25.87
2018-03-25T14:18:01.678Z,25.97
2018-03-25T14:20:29.147Z,26.60
2018-03-25T14:22:56.635Z,24.67
2018-03-25T14:25:24.890Z,25.30
2018-03-25T14:27:53.121Z,27.00
2018-03-25T14:30:20.622Z,26.77
2018-03-25T14:32:48.893Z,27.17
2018-03-25T14:35:17.141Z,25.70
2018-03-25T14:37:44.636Z,26.57
2018-03-25T14:40:12.895Z,27.70
2018-03-25T14:42:40.406Z,27.10
2018-03-25T14:45:07.886Z,25.03
2018-03-25T14:47:35.413Z,26.83
2018-03-25T14:50:03.650Z,26.47
2018-03-25T14:52:31.931Z,25.90
2018-03-25T14:55:00.160Z,27.37
2018-03-25T14:57:27.668Z,25.47
2018-03-25T14:59:55.924Z,27.03
2018-03-25T15:02:24.900Z,25.30
2018-03-25T15:04:52.463Z,26.93
2018-03-25T15:07:19.938Z,27.57
2018-03-25T15:09:47.427Z,25.33
2018-03-25T15:12:14.895Z,26.57
2018-03-25T15:14:42.460Z,27.43
2018-03-25T15:17:09.962Z,25.63
2018-03-25T15:19:37.598Z,25.90
2018-03-25T15:22:05.779Z,25.57
2018-03-25T15:24:33.244Z,26.67
2018-03-25T15:27:00.727Z,24.80
2018-03-25T15:29:28.997Z,25.60
2018-03-25T15:31:57.293Z,27.10
2018-03-25T15:34:25.538Z,26.47
2018-03-25T15:36:53.928Z,25.93
2018-03-25T15:39:22.181Z,25.47
2018-03-25T15:41:49.750Z,24.83
2018-03-25T15:44:17.222Z,24.27
2018-03-25T15:46:44.709Z,25.73
2018-03-25T15:49:12.178Z,24.60
2018-03-25T15:51:39.676Z,25.10
2018-03-25T15:54:07.167Z,24.23
2018-03-25T15:56:35.581Z,28.13
2018-03-25T15:59:03.083Z,26.10
2018-03-25T16:01:30.564Z,24.93
2018-03-25T16:03:58.806Z,24.57
2018-03-25T16:06:27.050Z,25.00
2018-03-25T16:08:54.536Z,25.20
2018-03-25T16:11:22.097Z,28.10
2018-03-25T16:13:49.561Z,24.53
2018-03-25T16:16:17.045Z,26.80
2018-03-25T16:18:45.343Z,25.20
2018-03-25T16:21:12.826Z,26.67
2018-03-25T16:23:40.402Z,26.57
2018-03-25T16:26:07.893Z,25.53
2018-03-25T16:28:36.249Z,27.77
2018-03-25T16:31:03.799Z,24.07
2018-03-25T16:33:31.371Z,25.77
2018-03-25T16:35:59.612Z,24.80
2018-03-25T16:38:27.082Z,25.00
2018-03-25T16:40:54.566Z,25.00
2018-03-25T16:43:22.816Z,25.87
2018-03-25T16:45:50.398Z,27.17
2018-03-25T16:48:18.691Z,26.03
2018-03-25T16:50:46.156Z,24.73
2018-03-25T16:53:13.645Z,25.30
2018-03-25T16:55:41.249Z,26.53
2018-03-25T16:58:09.491Z,25.70
2018-03-25T17:00:36.966Z,25.23
2018-03-25T17:03:04.436Z,24.63
2018-03-25T17:05:32.696Z,24.73
2018-03-25T17:08:00.168Z,24.30
2018-03-25T17:10:28.432Z,24.00
2018-03-25T17:12:55.953Z,24.33
2018-03-25T17:15:24.474Z,25.13
2018-03-25T17:17:52.728Z,24.10
2018-03-25T17:20:20.204Z,23.80
2018-03-25T17:22:47.783Z,24.30
2018-03-25T17:25:15.309Z,24.17
2018-03-25T17:27:42.788Z,24.30
2018-03-25T17:30:11.024Z,24.40
2018-03-25T17:32:38.616Z,24.30
2018-03-25T17:35:06.860Z,24.70
2018-03-25T17:37:34.337Z,24.57
2018-03-25T17:40:01.810Z,25.40
2018-03-25T17:42:30.106Z,26.00
2018-03-25T17:44:57.586Z,24.80
2018-03-25T17:47:25.070Z,24.97
2018-03-25T17:49:52.572Z,26.77
2018-03-25T17:52:20.086Z,23.42
2018-03-25T17:54:50.021Z,24.00
2018-03-25T17:57:17.492Z,25.10
2018-03-25T17:59:45.753Z,25.03
2018-03-25T18:02:13.321Z,25.80
2018-03-25T18:04:41.569Z,25.57
2018-03-25T18:07:09.158Z,25.00
2018-03-25T18:09:37.439Z,24.83
2018-03-25T18:12:05.014Z,24.25
2018-03-25T18:14:32.489Z,23.62
2018-03-25T18:17:00.045Z,23.00
2018-03-25T18:19:27.528Z,24.12
2018-03-25T18:21:55.004Z,24.10
2018-03-25T18:24:22.567Z,24.30
2018-03-25T18:26:49.960Z,23.60
2018-03-25T18:29:17.444Z,24.25
2018-03-25T18:31:44.966Z,24.65
2018-03-25T18:34:12.492Z,26.15
2018-03-25T18:36:39.980Z,25.58
2018-03-25T18:39:07.461Z,24.00
2018-03-25T18:41:34.957Z,25.08
2018-03-25T18:44:02.537Z,25.12
2018-03-25T18:46:30.782Z,25.20
2018-03-25T18:48:58.261Z,27.85
2018-03-25T18:51:25.756Z,26.48
2018-03-25T18:53:53.563Z,26.62
2018-03-25T18:56:21.144Z,26.92
2018-03-25T18:58:49.414Z,26.10
2018-03-25T19:01:17.667Z,26.02
2018-03-25T19:03:45.136Z,25.60
2018-03-25T19:06:12.610Z,27.37
2018-03-25T19:08:40.932Z,25.73
2018-03-25T19:11:08.404Z,29.50
2018-03-25T19:13:35.888Z,27.23
2018-03-25T19:16:03.366Z,29.30
2018-03-25T19:18:31.617Z,29.42
2018-03-25T19:20:59.080Z,27.65
2018-03-25T19:23:28.071Z,27.92
2018-03-25T19:25:55.541Z,27.48
2018-03-25T19:28:23.811Z,28.23
2018-03-25T19:30:52.047Z,27.60
2018-03-25T19:33:19.523Z,27.73
2018-03-25T19:35:47.002Z,28.85
2018-03-25T19:38:14.486Z,28.08
2018-03-25T19:40:41.985Z,27.98
2018-03-25T19:43:09.468Z,27.17
2018-03-25T19:45:36.958Z,30.35
2018-03-25T19:48:04.488Z,29.25
2018-03-25T19:50:32.813Z,31.25
2018-03-25T19:53:00.312Z,28.95
2018-03-25T19:55:27.795Z,26.70
2018-03-25T19:57:56.045Z,28.62
2018-03-25T20:00:23.547Z,29.52
2018-03-25T20:02:51.040Z,27.90
2018-03-25T20:05:18.574Z,28.48
2018-03-25T20:07:46.048Z,28.73
2018-03-25T20:10:13.528Z,28.75
2018-03-25T20:12:41.151Z,28.95
2018-03-25T20:15:08.741Z,29.25
2018-03-25T20:17:36.288Z,28.38
2018-03-25T20:20:03.839Z,29.65
2018-03-25T20:22:31.309Z,29.17
2018-03-25T20:24:58.788Z,28.90
2018-03-25T20:27:26.344Z,30.10
2018-03-25T20:29:53.821Z,29.37
2018-03-25T20:32:22.079Z,29.70
2018-03-25T20:34:49.559Z,29.75
2018-03-25T20:37:17.804Z,27.80
2018-03-25T20:39:45.268Z,29.63
2018-03-25T20:42:12.829Z,28.50
2018-03-25T20:44:40.311Z,29.40
2018-03-25T20:47:07.775Z,27.10
2018-03-25T20:49:35.236Z,27.10
2018-03-25T20:52:02.767Z,29.63
2018-03-25T20:54:31.002Z,29.08
2018-03-25T20:56:58.584Z,26.30
2018-03-25T20:59:26.204Z,28.25
2018-03-25T21:01:53.680Z,27.80
2018-03-25T21:04:21.140Z,28.05
2018-03-25T21:06:48.636Z,29.75
2018-03-25T21:09:16.879Z,30.17
2018-03-25T21:11:44.383Z,28.08
2018-03-25T21:14:11.878Z,25.45
2018-03-25T21:16:39.357Z,28.30
2018-03-25T21:19:06.824Z,27.73
2018-03-25T21:21:34.294Z,25.75
2018-03-25T21:24:02.559Z,25.85
2018-03-25T21:26:30.829Z,27.35
2018-03-25T21:28:58.318Z,24.67
2018-03-25T21:31:26.564Z,25.95
2018-03-25T21:33:54.057Z,25.62
2018-03-25T21:36:21.579Z,25.37
2018-03-25T21:38:49.012Z,23.87
2018-03-25T21:41:16.490Z,22.92
2018-03-25T21:43:44.008Z,23.60
2018-03-25T21:46:11.497Z,25.02
2018-03-25T21:48:38.967Z,23.58
2018-03-25T21:51:06.452Z,24.30
2018-03-25T21:53:34.032Z,23.27
2018-03-25T21:56:01.609Z,23.70
2018-03-25T21:58:29.092Z,24.17
2018-03-25T22:00:56.578Z,22.10
2018-03-25T22:03:24.051Z,23.70
2018-03-25T22:05:51.927Z,23.27
2018-03-25T22:08:19.413Z,23.27
2018-03-25T22:10:46.897Z,23.48
2018-03-25T22:13:15.125Z,23.38
2018-03-25T22:15:42.621Z,26.65
2018-03-25T22:18:10.191Z,24.42
2018-03-25T22:20:37.652Z,26.67
2018-03-25T22:23:05.924Z,25.02
2018-03-25T22:25:33.480Z,26.20
2018-03-25T22:28:01.013Z,26.35
2018-03-25T22:30:28.448Z,24.65
2018-03-25T22:32:55.936Z,24.42
2018-03-25T22:35:23.394Z,24.08
2018-03-25T22:37:50.957Z,26.08
2018-03-25T22:40:18.421Z,25.85
2018-03-25T22:42:45.984Z,24.42
2018-03-25T22:45:13.467Z,24.48
2018-03-25T22:47:40.943Z,26.23
2018-03-25T22:50:08.421Z,24.50
2018-03-25T22:52:35.955Z,25.40
2018-03-25T22:55:03.514Z,24.25
2018-03-25T22:57:31.026Z,24.83
2018-03-25T22:59:59.332Z,24.15
2018-03-25T23:02:26.807Z,24.67
2018-03-25T23:04:54.282Z,26.42
2018-03-25T23:07:21.797Z,25.15
2018-03-25T23:09:50.030Z,22.83
2018-03-25T23:12:17.605Z,23.95
2018-03-25T23:14:45.085Z,24.77
2018-03-25T23:17:13.311Z,22.92
2018-03-25T23:19:40.785Z,23.77
2018-03-25T23:22:08.249Z,24.55
2018-03-25T23:24:35.812Z,23.52
2018-03-25T23:27:03.288Z,24.05
2018-03-25T23:29:31.552Z,24.55
2018-03-25T23:31:59.809Z,22.08
2018-03-25T23:34:27.306Z,25.15
2018-03-25T23:36:54.768Z,23.87
2018-03-25T23:39:22.324Z,24.37
2018-03-25T23:41:49.830Z,24.55
2018-03-25T23:44:17.295Z,23.20
2018-03-25T23:46:44.963Z,24.60
2018-03-25T23:49:12.424Z,23.90
2018-03-25T23:51:39.909Z,24.27
2018-03-25T23:54:07.378Z,23.75
2018-03-25T23:56:34.851Z,23.85
2018-03-25T23:59:02.306Z,22.83
